Time;durP1;ratioP1;P1;durP2;ratioP2;P2;SDS_P1;SDS_P2;PMS_P1;PMS_P2;Temp;Humidity;BMP_temperature;BMP_pressure;BME280_temperature;BME280_humidity;BME280_pressure;Samples;Min_cycle;Max_cycle;Signal;HPM_P1;HPM_P2
2022/06/17 00:01:56;0.00;0.00;0.62;0.00;0.00;0.62;2.70;2.20;;;27.80;23.10;;;;;;2251860;61;20390;-55
2022/06/17 00:04:41;0.00;0.00;0.62;0.00;0.00;0.62;2.83;2.50;;;27.80;23.10;;;;;;2248083;61;20362;-54
2022/06/17 00:07:26;0.00;0.00;0.62;0.00;0.00;0.62;2.93;2.60;;;27.80;23.20;;;;;;2251683;61;20513;-52
2022/06/17 00:10:20;0.00;0.00;0.62;0.00;0.00;0.62;2.90;2.50;;;27.80;23.20;;;;;;2251611;61;20405;-57
2022/06/17 00:13:12;0.00;0.00;0.62;0.00;0.00;0.62;3.23;2.50;;;27.80;23.30;;;;;;2251392;61;20782;-54
2022/06/17 00:15:57;0.00;0.00;0.62;0.00;0.00;0.62;3.87;3.17;;;27.80;23.30;;;;;;2248464;61;20449;-52
2022/06/17 00:18:42;0.00;0.00;0.62;0.00;0.00;0.62;4.30;3.07;;;27.80;23.40;;;;;;2248078;61;20457;-56
2022/06/17 00:21:31;0.00;0.00;0.62;0.00;0.00;0.62;2.90;2.60;;;27.70;23.40;;;;;;2251817;61;20367;-53
2022/06/17 00:24:21;0.00;0.00;0.62;0.00;0.00;0.62;2.70;2.50;;;27.60;23.30;;;;;;2251529;61;20392;-54
2022/06/17 00:27:10;0.00;0.00;0.62;0.00;0.00;0.62;2.80;2.57;;;27.50;23.30;;;;;;2251325;61;20421;-56
2022/06/17 00:29:56;0.00;0.00;0.62;0.00;0.00;0.62;3.93;2.60;;;27.40;23.30;;;;;;2251561;61;20772;-55
2022/06/17 00:32:40;0.00;0.00;0.62;0.00;0.00;0.62;3.10;2.80;;;27.30;23.40;;;;;;2251528;61;20398;-56
2022/06/17 00:35:30;0.00;0.00;0.62;0.00;0.00;0.62;4.13;3.50;;;27.20;23.40;;;;;;2248225;61;20451;-57
2022/06/17 00:38:19;0.00;0.00;0.62;0.00;0.00;0.62;4.47;3.07;;;27.20;23.40;;;;;;2251241;61;20915;-55
2022/06/17 00:41:16;0.00;0.00;0.62;0.00;0.00;0.62;4.70;2.93;;;27.10;23.40;;;;;;2248299;61;20763;-55
2022/06/17 00:44:15;0.00;0.00;0.62;0.00;0.00;0.62;3.73;2.97;;;27.00;23.30;;;;;;2251054;61;20554;-52
2022/06/17 00:47:12;0.00;0.00;0.62;0.00;0.00;0.62;3.30;3.00;;;26.80;23.20;;;;;;2251574;61;20395;-55
2022/06/17 00:50:09;0.00;0.00;0.62;0.00;0.00;0.62;2.70;2.40;;;26.70;23.30;;;;;;2251069;61;21060;-52
2022/06/17 00:53:15;0.00;0.00;0.62;0.00;0.00;0.62;3.37;2.97;;;26.60;23.40;;;;;;2250918;61;20371;-53
2022/06/17 00:56:04;0.00;0.00;0.62;0.00;0.00;0.62;4.30;2.90;;;26.50;23.60;;;;;;2251354;61;20378;-52
2022/06/17 00:59:01;0.00;0.00;0.62;0.00;0.00;0.62;3.57;2.83;;;26.40;23.70;;;;;;2248239;61;20494;-55
2022/06/17 01:01:50;0.00;0.00;0.62;0.00;0.00;0.62;3.30;2.33;;;26.30;23.70;;;;;;2251264;61;20436;-53
2022/06/17 01:04:49;0.00;0.00;0.62;0.00;0.00;0.62;3.43;2.67;;;26.30;23.80;;;;;;2250393;61;20809;-55
2022/06/17 01:07:40;0.00;0.00;0.62;0.00;0.00;0.62;2.97;2.30;;;26.30;23.90;;;;;;2251358;61;20410;-55
2022/06/17 01:10:26;0.00;0.00;0.62;0.00;0.00;0.62;3.40;2.27;;;26.30;23.90;;;;;;2248284;61;20436;-55
2022/06/17 01:13:12;0.00;0.00;0.62;0.00;0.00;0.62;2.30;2.10;;;26.30;24.00;;;;;;2250375;61;20886;-56
2022/06/17 01:15:58;0.00;0.00;0.62;0.00;0.00;0.62;3.13;2.50;;;26.30;24.00;;;;;;2251247;61;20385;-56
2022/06/17 01:18:46;0.00;0.00;0.62;0.00;0.00;0.62;3.83;2.50;;;26.20;24.00;;;;;;2248204;61;20423;-55
2022/06/17 01:21:39;0.00;0.00;0.62;0.00;0.00;0.62;4.80;2.57;;;26.20;24.00;;;;;;2248328;61;20472;-53
2022/06/17 01:24:26;0.00;0.00;0.62;0.00;0.00;0.62;4.30;2.80;;;26.20;24.00;;;;;;2251566;61;20406;-56
2022/06/17 01:27:13;0.00;0.00;0.62;0.00;0.00;0.62;2.80;2.40;;;26.20;24.00;;;;;;2250917;61;20387;-52
2022/06/17 01:29:58;0.00;0.00;0.62;0.00;0.00;0.62;2.47;2.23;;;26.20;24.00;;;;;;2248457;61;20474;-53
2022/06/17 01:32:49;0.00;0.00;0.62;0.00;0.00;0.62;2.90;2.57;;;26.20;24.10;;;;;;2250944;61;20459;-56
2022/06/17 01:35:43;0.00;0.00;0.62;0.00;0.00;0.62;4.23;2.87;;;26.20;24.10;;;;;;2248164;61;20379;-55
2022/06/17 01:38:30;0.00;0.00;0.62;0.00;0.00;0.62;4.00;2.83;;;26.20;24.10;;;;;;2248949;61;20506;-55
2022/06/17 01:41:19;0.00;0.00;0.62;0.00;0.00;0.62;2.80;2.50;;;26.20;24.20;;;;;;2247903;61;20448;-56
2022/06/17 01:44:10;0.00;0.00;0.62;0.00;0.00;0.62;4.03;2.40;;;26.20;24.20;;;;;;2250606;61;20406;-52
2022/06/17 01:46:57;0.00;0.00;0.62;0.00;0.00;0.62;3.37;2.60;;;26.20;24.20;;;;;;2251118;61;20425;-55
2022/06/17 01:49:46;0.00;0.00;0.62;0.00;0.00;0.62;2.27;2.07;;;26.20;24.20;;;;;;2248232;61;20363;-52
2022/06/17 01:52:38;0.00;0.00;0.62;0.00;0.00;0.62;2.67;2.20;;;26.20;24.20;;;;;;2251318;61;20355;-56
2022/06/17 01:55:28;0.00;0.00;0.62;0.00;0.00;0.62;2.23;2.00;;;26.30;24.20;;;;;;2247889;61;20907;-54
2022/06/17 01:58:21;0.00;0.00;0.62;0.00;0.00;0.62;3.43;2.60;;;26.30;24.20;;;;;;2247645;61;20367;-55
2022/06/17 02:01:08;0.00;0.00;0.62;0.00;0.00;0.62;2.67;2.13;;;26.30;24.20;;;;;;2248318;61;20460;-55
2022/06/17 02:03:57;0.00;0.00;0.62;0.00;0.00;0.62;2.73;2.10;;;26.30;24.20;;;;;;2247585;61;20447;-55
2022/06/17 02:06:47;0.00;0.00;0.62;0.00;0.00;0.62;2.20;2.00;;;26.30;24.10;;;;;;2248191;61;20421;-51
2022/06/17 02:09:33;0.00;0.00;0.62;0.00;0.00;0.62;3.10;2.73;;;26.40;24.50;;;;;;2248063;61;20786;-53
2022/06/17 02:12:19;0.00;0.00;0.62;0.00;0.00;0.62;2.33;1.97;;;26.40;24.10;;;;;;2251156;61;20884;-56
2022/06/17 02:15:13;0.00;0.00;0.62;0.00;0.00;0.62;2.43;2.10;;;26.40;24.10;;;;;;2248037;61;20366;-55
2022/06/17 02:18:32;0.00;0.00;0.62;0.00;0.00;0.62;3.77;2.63;;;26.40;24.00;;;;;;2245658;61;20928;-55
2022/06/17 02:21:28;0.00;0.00;0.62;0.00;0.00;0.62;2.80;2.23;;;26.50;24.00;;;;;;2248139;61;20410;-53
2022/06/17 02:24:16;0.00;0.00;0.62;0.00;0.00;0.62;3.10;2.50;;;26.50;24.00;;;;;;2245655;61;20773;-51
2022/06/17 02:27:04;0.00;0.00;0.62;0.00;0.00;0.62;3.50;2.00;;;26.50;24.00;;;;;;2251104;61;20395;-54
2022/06/17 02:29:50;0.00;0.00;0.62;0.00;0.00;0.62;2.30;2.00;;;26.50;24.00;;;;;;2251627;61;20416;-55
2022/06/17 02:32:37;0.00;0.00;0.62;0.00;0.00;0.62;2.33;2.10;;;26.50;23.90;;;;;;2250734;61;20414;-56
2022/06/17 02:35:29;0.00;0.00;0.62;0.00;0.00;0.62;2.47;2.00;;;26.50;23.90;;;;;;2247798;61;20374;-56
2022/06/17 02:38:19;0.00;0.00;0.62;0.00;0.00;0.62;2.67;2.00;;;26.50;23.90;;;;;;2245614;61;20418;-55
2022/06/17 02:41:12;0.00;0.00;0.62;0.00;0.00;0.62;2.60;2.40;;;26.60;23.90;;;;;;2250688;61;20363;-54
2022/06/17 02:44:05;0.00;0.00;0.62;0.00;0.00;0.62;2.90;2.20;;;26.60;23.90;;;;;;2247834;61;20448;-52
2022/06/17 02:46:53;0.00;0.00;0.62;0.00;0.00;0.62;2.73;2.47;;;26.60;23.90;;;;;;2247470;61;20430;-53
2022/06/17 02:49:40;0.00;0.00;0.62;0.00;0.00;0.62;2.70;2.40;;;26.60;23.90;;;;;;2251234;61;20359;-54
2022/06/17 02:52:33;0.00;0.00;0.62;0.00;0.00;0.62;5.10;2.57;;;26.60;24.00;;;;;;2251441;61;20359;-54
2022/06/17 02:55:32;0.00;0.00;0.62;0.00;0.00;0.62;2.87;2.57;;;26.60;24.00;;;;;;2247606;61;20430;-52
2022/06/17 02:58:28;0.00;0.00;0.62;0.00;0.00;0.62;2.20;1.90;;;26.60;24.00;;;;;;2248781;61;20363;-51
2022/06/17 03:01:18;0.00;0.00;0.62;0.00;0.00;0.62;2.23;2.03;;;26.60;24.00;;;;;;2251540;61;20803;-55
2022/06/17 03:04:13;0.00;0.00;0.62;0.00;0.00;0.62;2.63;2.20;;;26.60;23.90;;;;;;2245753;61;20370;-55
2022/06/17 03:07:01;0.00;0.00;0.62;0.00;0.00;0.62;2.73;2.53;;;26.60;23.90;;;;;;2248490;61;21123;-53
2022/06/17 03:09:47;0.00;0.00;0.62;0.00;0.00;0.62;2.53;2.10;;;26.60;24.00;;;;;;2251227;61;20885;-54
2022/06/17 03:12:32;0.00;0.00;0.62;0.00;0.00;0.62;5.97;2.77;;;26.60;24.00;;;;;;2248730;61;20397;-57
2022/06/17 03:15:19;0.00;0.00;0.62;0.00;0.00;0.62;3.73;3.30;;;26.60;24.00;;;;;;2251722;61;20386;-53
2022/06/17 03:18:06;0.00;0.00;0.62;0.00;0.00;0.62;3.53;2.67;;;26.60;24.00;;;;;;2245800;61;20359;-55
2022/06/17 03:20:51;0.00;0.00;0.62;0.00;0.00;0.62;5.10;3.13;;;26.50;24.00;;;;;;2252081;61;20362;-54
2022/06/17 03:23:48;0.00;0.00;0.62;0.00;0.00;0.62;3.13;2.20;;;26.50;24.00;;;;;;2248165;61;20422;-52
2022/06/17 03:26:41;0.00;0.00;0.62;0.00;0.00;0.62;3.70;2.40;;;26.50;24.00;;;;;;2248794;61;20793;-53
2022/06/17 03:29:28;0.00;0.00;0.62;0.00;0.00;0.62;3.10;2.80;;;26.40;24.00;;;;;;2252202;61;20414;-53
2022/06/17 03:32:18;0.00;0.00;0.62;0.00;0.00;0.62;2.77;2.47;;;26.40;24.10;;;;;;2245635;61;20367;-55
2022/06/17 03:35:05;0.00;0.00;0.62;0.00;0.00;0.62;5.63;2.50;;;26.30;24.00;;;;;;2248742;61;20394;-56
2022/06/17 03:37:54;0.00;0.00;0.62;0.00;0.00;0.62;5.03;2.50;;;26.30;24.10;;;;;;2248745;61;20370;-57
2022/06/17 03:40:45;0.00;0.00;0.62;0.00;0.00;0.62;3.10;2.70;;;26.30;24.10;;;;;;2251513;61;20414;-53
2022/06/17 03:43:35;0.00;0.00;0.62;0.00;0.00;0.62;3.23;2.67;;;26.20;24.10;;;;;;2251148;61;20367;-53
2022/06/17 03:46:26;0.00;0.00;0.62;0.00;0.00;0.62;2.37;2.17;;;26.20;24.20;;;;;;2248560;61;20382;-53
2022/06/17 03:49:18;0.00;0.00;0.62;0.00;0.00;0.62;5.13;2.90;;;26.20;24.20;;;;;;2248406;61;20409;-55
2022/06/17 03:52:14;0.00;0.00;0.62;0.00;0.00;0.62;4.13;2.87;;;26.20;24.20;;;;;;2251384;61;20366;-53
2022/06/17 03:54:59;0.00;0.00;0.62;0.00;0.00;0.62;2.97;2.77;;;26.20;24.30;;;;;;2248116;61;20358;-56
2022/06/17 03:57:50;0.00;0.00;0.62;0.00;0.00;0.62;3.10;2.80;;;26.10;24.30;;;;;;2477400;53;21207;-54
2022/06/17 04:00:44;0.00;0.00;0.62;0.00;0.00;0.62;3.07;2.77;;;26.10;24.40;;;;;;2244390;61;20419;-52
2022/06/17 04:03:34;0.00;0.00;0.62;0.00;0.00;0.62;3.40;3.10;;;26.10;24.40;;;;;;2243843;61;20586;-54
2022/06/17 04:06:28;0.00;0.00;0.62;0.00;0.00;0.62;3.67;2.80;;;26.10;24.50;;;;;;2244338;61;20414;-51
2022/06/17 04:09:18;0.00;0.00;0.62;0.00;0.00;0.62;3.83;2.73;;;26.00;24.40;;;;;;2244097;61;20363;-57
2022/06/17 04:12:19;0.00;0.00;0.62;0.00;0.00;0.62;4.40;2.90;;;26.00;24.50;;;;;;2244245;61;20411;-52
2022/06/17 04:15:32;0.00;0.00;0.62;0.00;0.00;0.62;4.63;2.80;;;26.00;24.60;;;;;;2244031;61;20411;-50
2022/06/17 04:18:17;0.00;0.00;0.62;0.00;0.00;0.62;3.70;3.13;;;26.00;24.60;;;;;;2244074;61;20452;-53
2022/06/17 04:21:06;0.00;0.00;0.62;0.00;0.00;0.62;4.13;3.00;;;25.90;24.70;;;;;;2244659;61;20368;-54
2022/06/17 04:23:52;0.00;0.00;0.62;0.00;0.00;0.62;3.57;3.03;;;25.90;24.70;;;;;;2243985;61;20410;-53
2022/06/17 04:27:00;0.00;0.00;0.62;0.00;0.00;0.62;6.27;3.70;;;25.90;24.70;;;;;;2247638;61;20824;-54
2022/06/17 04:29:50;0.00;0.00;0.62;0.00;0.00;0.62;5.20;3.57;;;25.80;24.70;;;;;;2244653;61;20904;-53
2022/06/17 04:32:38;0.00;0.00;0.62;0.00;0.00;0.62;3.63;2.93;;;25.80;24.70;;;;;;2244148;61;20412;-51
2022/06/17 04:35:23;0.00;0.00;0.62;0.00;0.00;0.62;4.13;3.73;;;25.70;24.70;;;;;;2244462;61;20484;-53
2022/06/17 04:38:09;0.00;0.00;0.62;0.00;0.00;0.62;4.47;3.20;;;25.70;24.70;;;;;;2243976;61;20968;-53
2022/06/17 04:41:24;0.00;0.00;0.62;0.00;0.00;0.62;5.37;3.40;;;25.60;24.80;;;;;;2244427;61;20368;-54
2022/06/17 04:44:29;0.00;0.00;0.62;0.00;0.00;0.62;4.13;3.40;;;25.50;24.80;;;;;;2247388;61;20371;-56
2022/06/17 04:47:16;0.00;0.00;0.62;0.00;0.00;0.62;6.13;3.50;;;25.50;24.90;;;;;;2247258;61;20423;-54
2022/06/17 04:50:15;0.00;0.00;0.62;0.00;0.00;0.62;5.37;3.80;;;25.50;25.00;;;;;;2244476;61;20379;-53
2022/06/17 04:53:00;0.00;0.00;0.62;0.00;0.00;0.62;11.00;5.40;;;25.40;25.00;;;;;;2243715;61;20849;-56
2022/06/17 04:55:46;0.00;0.00;0.62;0.00;0.00;0.62;10.90;4.90;;;25.40;25.10;;;;;;2248841;61;20414;-54
2022/06/17 04:58:37;0.00;0.00;0.62;0.00;0.00;0.62;9.87;5.27;;;25.40;25.20;;;;;;2251641;61;20506;-57
2022/06/17 05:01:30;0.00;0.00;0.62;0.00;0.00;0.62;11.53;5.53;;;25.30;25.20;;;;;;2248027;61;20367;-56
2022/06/17 05:04:32;0.00;0.00;0.62;0.00;0.00;0.62;16.37;6.67;;;25.30;25.30;;;;;;2248438;61;20446;-52
2022/06/17 05:07:23;0.00;0.00;0.62;0.00;0.00;0.62;12.80;6.23;;;25.30;25.40;;;;;;2247971;61;20402;-56
2022/06/17 05:10:17;0.00;0.00;0.62;0.00;0.00;0.62;14.60;5.67;;;25.20;25.50;;;;;;2251426;61;20999;-51
2022/06/17 05:13:07;0.00;0.00;0.62;0.00;0.00;0.62;16.40;6.20;;;25.20;25.50;;;;;;2248598;61;20359;-56
2022/06/17 05:15:53;0.00;0.00;0.62;0.00;0.00;0.62;12.67;6.33;;;25.20;25.60;;;;;;2247828;61;20383;-55
2022/06/17 05:18:39;0.00;0.00;0.62;0.00;0.00;0.62;8.53;4.90;;;25.10;25.60;;;;;;2251506;61;20425;-54
2022/06/17 05:21:29;0.00;0.00;0.62;0.00;0.00;0.62;10.23;4.70;;;25.10;25.70;;;;;;2249999;61;20370;-51
2022/06/17 05:24:32;0.00;0.00;0.62;0.00;0.00;0.62;15.90;4.60;;;25.10;25.80;;;;;;2247011;61;20852;-52
2022/06/17 05:27:18;0.00;0.00;0.62;0.00;0.00;0.62;7.83;4.40;;;25.10;25.80;;;;;;2248097;61;20843;-52
2022/06/17 05:30:05;0.00;0.00;0.62;0.00;0.00;0.62;6.93;4.63;;;25.10;25.90;;;;;;2247803;61;20358;-50
2022/06/17 05:32:55;0.00;0.00;0.62;0.00;0.00;0.62;7.67;4.00;;;25.00;25.80;;;;;;2247736;61;20363;-52
2022/06/17 05:35:42;0.00;0.00;0.62;0.00;0.00;0.62;4.60;3.43;;;25.00;25.80;;;;;;2247777;61;20378;-49
2022/06/17 05:38:30;0.00;0.00;0.62;0.00;0.00;0.62;6.97;3.87;;;25.00;25.90;;;;;;2250546;61;20379;-53
2022/06/17 05:41:20;0.00;0.00;0.62;0.00;0.00;0.62;9.40;4.17;;;24.90;25.90;;;;;;2248082;61;20386;-50
2022/06/17 05:44:07;0.00;0.00;0.62;0.00;0.00;0.62;9.27;4.67;;;24.90;26.00;;;;;;2247543;61;20430;-52
2022/06/17 05:47:05;0.00;0.00;0.62;0.00;0.00;0.62;6.53;4.30;;;24.90;26.10;;;;;;2248002;61;20394;-50
2022/06/17 05:50:14;0.00;0.00;0.62;0.00;0.00;0.62;6.73;3.70;;;24.90;26.10;;;;;;2251295;61;20374;-55
2022/06/17 05:53:32;0.00;0.00;0.62;0.00;0.00;0.62;6.50;4.50;;;24.90;26.20;;;;;;2245771;61;20378;-51
2022/06/17 05:56:44;0.00;0.00;0.62;0.00;0.00;0.62;6.40;4.10;;;24.80;26.20;;;;;;2253641;61;20448;-51
2022/06/17 05:59:29;0.00;0.00;0.62;0.00;0.00;0.62;6.00;3.73;;;24.80;26.30;;;;;;2251668;61;20427;-50
2022/06/17 06:02:14;0.00;0.00;0.62;0.00;0.00;0.62;6.20;3.87;;;24.70;26.30;;;;;;2255400;61;20416;-51
2022/06/17 06:05:21;0.00;0.00;0.62;0.00;0.00;0.62;5.30;4.20;;;24.70;26.40;;;;;;2248408;61;20832;-51
2022/06/17 06:08:09;0.00;0.00;0.62;0.00;0.00;0.62;9.77;4.00;;;24.70;26.40;;;;;;2246842;61;20362;-53
2022/06/17 06:10:54;0.00;0.00;0.62;0.00;0.00;0.62;6.13;3.93;;;24.70;26.40;;;;;;2248011;61;20879;-55
2022/06/17 06:13:44;0.00;0.00;0.62;0.00;0.00;0.62;4.43;3.60;;;24.70;26.40;;;;;;2247453;61;20950;-53
2022/06/17 06:16:30;0.00;0.00;0.62;0.00;0.00;0.62;11.23;3.77;;;24.70;26.50;;;;;;2247996;61;20407;-50
2022/06/17 06:19:17;0.00;0.00;0.62;0.00;0.00;0.62;5.40;3.40;;;24.70;26.50;;;;;;2251517;61;20895;-53
2022/06/17 06:22:02;0.00;0.00;0.62;0.00;0.00;0.62;3.93;3.40;;;24.70;26.40;;;;;;2247812;61;20402;-50
2022/06/17 06:24:47;0.00;0.00;0.62;0.00;0.00;0.62;5.93;3.43;;;24.70;26.40;;;;;;2247758;61;20784;-50
2022/06/17 06:27:34;0.00;0.00;0.62;0.00;0.00;0.62;5.73;3.10;;;24.70;26.40;;;;;;2251305;61;20382;-51
2022/06/17 06:30:25;0.00;0.00;0.62;0.00;0.00;0.62;4.07;3.23;;;24.70;26.30;;;;;;2248204;61;20409;-55
2022/06/17 06:33:10;0.00;0.00;0.62;0.00;0.00;0.62;5.00;3.30;;;24.70;26.30;;;;;;2248958;61;20899;-51
2022/06/17 06:35:56;0.00;0.00;0.62;0.00;0.00;0.62;5.30;3.70;;;24.80;26.20;;;;;;2248313;61;20790;-51
2022/06/17 06:38:41;0.00;0.00;0.62;0.00;0.00;0.62;4.40;2.80;;;24.80;26.20;;;;;;2251721;61;20362;-54
2022/06/17 06:41:26;0.00;0.00;0.62;0.00;0.00;0.62;4.20;3.10;;;24.80;26.10;;;;;;2249344;61;20362;-53
2022/06/17 06:44:11;0.00;0.00;0.62;0.00;0.00;0.62;4.10;3.10;;;24.80;26.00;;;;;;2248233;61;20363;-53
2022/06/17 06:47:16;0.00;0.00;0.62;0.00;0.00;0.62;3.70;3.23;;;24.80;26.00;;;;;;2252213;61;20382;-52
2022/06/17 06:50:15;0.00;0.00;0.62;0.00;0.00;0.62;4.27;3.00;;;24.80;26.00;;;;;;2249133;61;20394;-53
2022/06/17 06:53:01;0.00;0.00;0.62;0.00;0.00;0.62;3.23;2.93;;;24.90;26.00;;;;;;2248693;61;20379;-53
2022/06/17 06:55:48;0.00;0.00;0.62;0.00;0.00;0.62;3.40;3.07;;;24.90;26.00;;;;;;2249087;61;20386;-53
2022/06/17 06:58:34;0.00;0.00;0.62;0.00;0.00;0.62;3.57;3.27;;;24.90;26.00;;;;;;2251550;61;20389;-51
2022/06/17 07:01:19;0.00;0.00;0.62;0.00;0.00;0.62;4.80;3.00;;;24.90;26.00;;;;;;2248646;61;20362;-50
2022/06/17 07:04:06;0.00;0.00;0.62;0.00;0.00;0.62;4.57;2.50;;;25.00;26.00;;;;;;2246539;61;20402;-57
2022/06/17 07:06:52;0.00;0.00;0.62;0.00;0.00;0.62;3.60;2.60;;;25.00;26.00;;;;;;2251661;61;20449;-56
2022/06/17 07:09:38;0.00;0.00;0.62;0.00;0.00;0.62;2.97;2.43;;;25.00;26.00;;;;;;2249506;61;20362;-56
2022/06/17 07:12:24;0.00;0.00;0.62;0.00;0.00;0.62;3.10;2.20;;;25.00;26.00;;;;;;2252592;61;20409;-52
2022/06/17 07:15:11;0.00;0.00;0.62;0.00;0.00;0.62;5.17;2.70;;;25.10;26.00;;;;;;2251349;61;20362;-55
2022/06/17 07:18:00;0.00;0.00;0.62;0.00;0.00;0.62;2.57;2.17;;;25.10;25.90;;;;;;2252749;61;20466;-58
2022/06/17 07:20:49;0.00;0.00;0.62;0.00;0.00;0.62;3.00;2.00;;;25.10;25.90;;;;;;2254197;61;20391;-56
2022/06/17 07:23:37;0.00;0.00;0.62;0.00;0.00;0.62;3.13;2.80;;;25.20;25.90;;;;;;2253013;61;20367;-54
2022/06/17 07:26:25;0.00;0.00;0.62;0.00;0.00;0.62;6.70;2.37;;;25.20;25.70;;;;;;2252382;61;20437;-54
2022/06/17 07:29:10;0.00;0.00;0.62;0.00;0.00;0.62;3.27;2.40;;;25.20;25.60;;;;;;2251314;61;20359;-51
2022/06/17 07:31:54;0.00;0.00;0.62;0.00;0.00;0.62;3.10;2.17;;;25.30;25.50;;;;;;2251966;61;20402;-51
2022/06/17 07:34:39;0.00;0.00;0.62;0.00;0.00;0.62;2.50;2.13;;;25.30;25.30;;;;;;2252169;61;20366;-52
2022/06/17 07:40:30;0.00;0.00;0.62;0.00;0.00;0.62;4.77;2.77;;;25.40;25.30;;;;;;2251853;61;20382;-53
2022/06/17 07:43:15;0.00;0.00;0.62;0.00;0.00;0.62;2.60;2.40;;;25.40;25.20;;;;;;2251659;61;20442;-57
2022/06/17 07:46:03;0.00;0.00;0.62;0.00;0.00;0.62;4.23;2.37;;;25.40;25.10;;;;;;2251546;61;20386;-52
2022/06/17 07:48:47;0.00;0.00;0.62;0.00;0.00;0.62;6.33;3.10;;;25.50;25.10;;;;;;2252158;61;20444;-52
2022/06/17 07:51:32;0.00;0.00;0.62;0.00;0.00;0.62;4.03;2.43;;;25.50;25.00;;;;;;2251378;61;20852;-52
2022/06/17 07:54:18;0.00;0.00;0.62;0.00;0.00;0.62;3.80;2.50;;;25.50;24.90;;;;;;2251545;61;21090;-59
2022/06/17 07:57:04;0.00;0.00;0.62;0.00;0.00;0.62;4.27;2.17;;;25.50;24.80;;;;;;2255220;61;20390;-54
2022/06/17 07:59:49;0.00;0.00;0.62;0.00;0.00;0.62;7.83;2.70;;;25.60;24.80;;;;;;2255917;61;20448;-54
2022/06/17 08:02:34;0.00;0.00;0.62;0.00;0.00;0.62;4.77;2.40;;;25.60;24.80;;;;;;2256216;61;20389;-51
2022/06/17 08:05:21;0.00;0.00;0.62;0.00;0.00;0.62;3.77;2.90;;;25.70;24.80;;;;;;2252243;61;20365;-51
2022/06/17 08:08:08;0.00;0.00;0.62;0.00;0.00;0.62;2.43;2.03;;;25.70;24.80;;;;;;2255302;61;20358;-52
2022/06/17 08:10:59;0.00;0.00;0.62;0.00;0.00;0.62;3.10;2.10;;;25.70;24.70;;;;;;2256104;61;20362;-49
2022/06/17 08:13:43;0.00;0.00;0.62;0.00;0.00;0.62;5.20;3.23;;;25.70;25.20;;;;;;2252194;61;20366;-57
2022/06/17 08:16:28;0.00;0.00;0.62;0.00;0.00;0.62;3.97;3.00;;;25.80;24.80;;;;;;2308123;53;20399;-53
2022/06/17 08:19:13;0.00;0.00;0.62;0.00;0.00;0.62;3.00;2.50;;;25.80;24.70;;;;;;2256410;61;20378;-56
2022/06/17 08:21:58;0.00;0.00;0.62;0.00;0.00;0.62;3.13;2.10;;;25.80;24.70;;;;;;2251975;61;20394;-54
2022/06/17 08:24:43;0.00;0.00;0.62;0.00;0.00;0.62;2.53;2.30;;;25.80;24.70;;;;;;2254227;61;20369;-50
2022/06/17 08:27:29;0.00;0.00;0.62;0.00;0.00;0.62;3.27;2.73;;;25.80;24.60;;;;;;2255890;61;20781;-52
2022/06/17 08:30:15;0.00;0.00;0.62;0.00;0.00;0.62;2.63;2.27;;;25.90;24.70;;;;;;2246650;61;20371;-54
2022/06/17 08:33:01;0.00;0.00;0.62;0.00;0.00;0.62;2.30;2.10;;;25.90;24.70;;;;;;2252041;61;20370;-49
2022/06/17 08:35:48;0.00;0.00;0.62;0.00;0.00;0.62;5.60;2.90;;;25.90;24.60;;;;;;2251049;61;20391;-50
2022/06/17 08:38:35;0.00;0.00;0.62;0.00;0.00;0.62;2.73;2.20;;;26.00;24.50;;;;;;2248581;61;20367;-53
2022/06/17 08:41:26;0.00;0.00;0.62;0.00;0.00;0.62;3.13;2.37;;;26.00;24.50;;;;;;2252032;61;20777;-53
2022/06/17 08:44:42;0.00;0.00;0.62;0.00;0.00;0.62;2.63;2.33;;;26.00;24.50;;;;;;2251338;61;20367;-51
2022/06/17 08:47:49;0.00;0.00;0.62;0.00;0.00;0.62;2.63;2.20;;;26.10;24.60;;;;;;2251932;61;20440;-50
2022/06/17 08:51:18;0.00;0.00;0.62;0.00;0.00;0.62;3.40;2.40;;;26.10;24.60;;;;;;2254014;61;20361;-54
2022/06/17 08:54:45;0.00;0.00;0.62;0.00;0.00;0.62;2.43;2.23;;;26.10;24.60;;;;;;2255489;61;20829;-50
2022/06/17 08:57:41;0.00;0.00;0.62;0.00;0.00;0.62;3.60;2.57;;;26.20;24.60;;;;;;2254310;61;20387;-54
2022/06/17 09:00:42;0.00;0.00;0.62;0.00;0.00;0.62;3.73;3.03;;;26.20;24.60;;;;;;2251408;61;20479;-54
2022/06/17 09:03:48;0.00;0.00;0.62;0.00;0.00;0.62;3.03;2.60;;;26.20;24.60;;;;;;2251850;61;20371;-52
2022/06/17 09:06:50;0.00;0.00;0.62;0.00;0.00;0.62;3.00;2.70;;;26.30;24.70;;;;;;2251204;61;20488;-53
2022/06/17 09:10:07;0.00;0.00;0.62;0.00;0.00;0.62;7.10;2.67;;;26.30;24.70;;;;;;2253768;61;20423;-59
2022/06/17 09:13:10;0.00;0.00;0.62;0.00;0.00;0.62;3.20;2.13;;;26.30;24.80;;;;;;2253422;61;20369;-56
2022/06/17 09:16:03;0.00;0.00;0.62;0.00;0.00;0.62;3.70;3.00;;;26.40;24.90;;;;;;2255764;61;20405;-54
2022/06/17 09:18:54;0.00;0.00;0.62;0.00;0.00;0.62;2.20;2.00;;;26.40;24.90;;;;;;2251305;61;20410;-54
2022/06/17 09:21:47;0.00;0.00;0.62;0.00;0.00;0.62;3.53;2.73;;;26.40;24.90;;;;;;2250943;61;20986;-54
2022/06/17 09:24:38;0.00;0.00;0.62;0.00;0.00;0.62;3.67;2.40;;;26.40;24.80;;;;;;2334615;53;20359;-54
2022/06/17 09:27:28;0.00;0.00;0.62;0.00;0.00;0.62;3.10;2.87;;;26.50;24.90;;;;;;2251577;61;20387;-57
2022/06/17 09:30:17;0.00;0.00;0.62;0.00;0.00;0.62;4.50;2.80;;;26.50;24.90;;;;;;2251560;61;20363;-53
2022/06/17 09:33:11;0.00;0.00;0.62;0.00;0.00;0.62;3.67;2.93;;;26.60;24.90;;;;;;2251685;61;20378;-56
2022/06/17 09:36:05;0.00;0.00;0.62;0.00;0.00;0.62;4.87;2.90;;;26.60;24.90;;;;;;2250841;61;20383;-51
2022/06/17 09:38:56;0.00;0.00;0.62;0.00;0.00;0.62;3.80;2.93;;;26.70;24.90;;;;;;2251737;61;20897;-52
2022/06/17 09:41:47;0.00;0.00;0.62;0.00;0.00;0.62;2.93;2.63;;;26.70;24.90;;;;;;2251982;61;20367;-54
2022/06/17 09:44:37;0.00;0.00;0.62;0.00;0.00;0.62;3.00;2.43;;;26.70;24.80;;;;;;2255109;61;20362;-56
2022/06/17 09:47:27;0.00;0.00;0.62;0.00;0.00;0.62;7.43;2.87;;;26.80;24.90;;;;;;2255687;61;20478;-58
2022/06/17 09:50:19;0.00;0.00;0.62;0.00;0.00;0.62;3.27;2.77;;;26.80;24.90;;;;;;2255560;61;20381;-48
2022/06/17 09:53:12;0.00;0.00;0.62;0.00;0.00;0.62;3.20;2.90;;;26.90;24.90;;;;;;2252390;61;20428;-55
2022/06/17 09:56:05;0.00;0.00;0.62;0.00;0.00;0.62;2.77;2.57;;;26.90;24.80;;;;;;2253672;61;20442;-51
2022/06/17 09:59:00;0.00;0.00;0.62;0.00;0.00;0.62;2.80;2.60;;;26.90;24.80;;;;;;2251098;61;20366;-50
2022/06/17 10:01:47;0.00;0.00;0.62;0.00;0.00;0.62;2.83;2.40;;;26.90;24.80;;;;;;2251911;61;20367;-56
2022/06/17 10:04:32;0.00;0.00;0.62;0.00;0.00;0.62;3.67;3.30;;;27.00;24.80;;;;;;2247157;61;20503;-51
2022/06/17 10:07:26;0.00;0.00;0.62;0.00;0.00;0.62;3.53;2.87;;;27.00;24.80;;;;;;2251028;61;20405;-51
2022/06/17 10:10:23;0.00;0.00;0.62;0.00;0.00;0.62;5.47;2.67;;;27.00;24.80;;;;;;2251728;61;20417;-52
2022/06/17 10:13:20;0.00;0.00;0.62;0.00;0.00;0.62;3.40;2.27;;;27.10;24.80;;;;;;2251079;61;20359;-52
2022/06/17 10:19:33;0.00;0.00;0.62;0.00;0.00;0.62;4.80;3.00;;;27.10;24.80;;;;;;2255822;61;20405;-56
2022/06/17 10:22:39;0.00;0.00;0.62;0.00;0.00;0.62;3.50;2.70;;;27.10;24.80;;;;;;2256152;61;20762;-53
2022/06/17 10:25:38;0.00;0.00;0.62;0.00;0.00;0.62;3.20;2.60;;;27.20;24.90;;;;;;2255970;61;20366;-54
2022/06/17 10:28:48;0.00;0.00;0.62;0.00;0.00;0.62;3.10;2.33;;;27.20;24.70;;;;;;2251229;61;20413;-55
2022/06/17 10:31:38;0.00;0.00;0.62;0.00;0.00;0.62;2.93;2.30;;;27.20;24.60;;;;;;2251871;61;20355;-59
2022/06/17 10:34:27;0.00;0.00;0.62;0.00;0.00;0.62;3.63;2.90;;;27.30;24.60;;;;;;2250855;61;20362;-56
2022/06/17 10:37:13;0.00;0.00;0.62;0.00;0.00;0.62;3.50;2.80;;;27.30;24.50;;;;;;2251992;61;20433;-57
2022/06/17 10:40:01;0.00;0.00;0.62;0.00;0.00;0.62;3.80;2.63;;;27.30;24.40;;;;;;2251871;61;20419;-57
2022/06/17 10:42:48;0.00;0.00;0.62;0.00;0.00;0.62;3.20;2.77;;;27.40;24.40;;;;;;2251594;61;20363;-55
2022/06/17 10:45:34;0.00;0.00;0.62;0.00;0.00;0.62;2.80;2.50;;;27.40;24.40;;;;;;2252326;61;20410;-57
2022/06/17 10:48:32;0.00;0.00;0.62;0.00;0.00;0.62;2.73;2.50;;;27.40;24.30;;;;;;2251910;61;20394;-55
2022/06/17 10:51:17;0.00;0.00;0.62;0.00;0.00;0.62;3.57;3.27;;;27.40;24.40;;;;;;2251986;61;20443;-54
2022/06/17 10:54:12;0.00;0.00;0.62;0.00;0.00;0.62;3.43;3.13;;;27.50;24.30;;;;;;2248856;61;20375;-53
2022/06/17 10:57:05;0.00;0.00;0.62;0.00;0.00;0.62;3.60;2.70;;;27.50;24.30;;;;;;2251237;61;20479;-53
2022/06/17 10:59:50;0.00;0.00;0.62;0.00;0.00;0.62;3.33;2.90;;;27.50;24.30;;;;;;2251902;61;20437;-52
2022/06/17 11:02:35;0.00;0.00;0.62;0.00;0.00;0.62;4.10;3.00;;;27.50;24.30;;;;;;2251830;61;20397;-52
2022/06/17 11:05:34;0.00;0.00;0.62;0.00;0.00;0.62;3.93;2.77;;;27.60;24.30;;;;;;2251231;61;20401;-54
2022/06/17 11:08:22;0.00;0.00;0.62;0.00;0.00;0.62;3.30;2.77;;;27.60;24.30;;;;;;2252107;61;20367;-56
2022/06/17 11:14:21;0.00;0.00;0.62;0.00;0.00;0.62;4.00;2.47;;;27.70;24.20;;;;;;2251621;61;20358;-51
2022/06/17 11:17:17;0.00;0.00;0.62;0.00;0.00;0.62;6.10;2.77;;;27.70;24.10;;;;;;2252150;61;20545;-53
2022/06/17 11:20:07;0.00;0.00;0.62;0.00;0.00;0.62;2.43;2.23;;;27.70;24.20;;;;;;2251856;61;20922;-56
2022/06/17 11:22:55;0.00;0.00;0.62;0.00;0.00;0.62;3.07;2.53;;;27.70;24.10;;;;;;2252968;61;20417;-54
2022/06/17 11:25:41;0.00;0.00;0.62;0.00;0.00;0.62;2.90;2.40;;;27.70;24.10;;;;;;2252120;61;20402;-53